createdAt,value
2018-09-26T00:00:10.791Z,2.33
2018-09-26T00:01:10.735Z,2.33
2018-09-26T00:02:10.685Z,2.32
2018-09-26T00:03:10.931Z,2.31
2018-09-26T00:04:11.218Z,2.36
2018-09-26T00:05:10.960Z,2.37
2018-09-26T00:06:10.865Z,2.33
2018-09-26T00:07:10.859Z,2.28
2018-09-26T00:08:10.668Z,2.34
2018-09-26T00:09:10.882Z,2.34
2018-09-26T00:10:10.850Z,2.34
2018-09-26T00:11:10.879Z,2.24
2018-09-26T00:12:10.987Z,2.39
2018-09-26T00:13:10.832Z,2.3
2018-09-26T00:14:10.718Z,2.26
2018-09-26T00:15:10.773Z,2.31
2018-09-26T00:16:10.821Z,2.18
2018-09-26T00:17:10.827Z,2.19
2018-09-26T00:18:11.091Z,2.29
2018-09-26T00:19:10.864Z,2.3
2018-09-26T00:20:10.660Z,2.29
2018-09-26T00:21:10.857Z,2.29
2018-09-26T00:22:10.914Z,2.35
2018-09-26T00:23:10.779Z,2.29
2018-09-26T00:24:10.779Z,2.22
2018-09-26T00:25:10.657Z,2.33
2018-09-26T00:26:10.865Z,2.3
2018-09-26T00:27:10.975Z,2.28
2018-09-26T00:28:10.720Z,2.29
2018-09-26T00:29:10.928Z,2.24
2018-09-26T00:30:11.013Z,2.26
2018-09-26T00:31:10.965Z,2.22
2018-09-26T00:32:10.936Z,2.34
2018-09-26T00:33:10.861Z,2.3
2018-09-26T00:34:10.676Z,2.21
2018-09-26T00:35:11.207Z,2.14
2018-09-26T00:36:12.414Z,2.18
2018-09-26T00:37:10.811Z,2.14
2018-09-26T00:38:11.025Z,2.17
2018-09-26T00:39:10.713Z,2.1
2018-09-26T00:40:10.819Z,2.18
2018-09-26T00:41:10.960Z,2.22
2018-09-26T00:42:11.113Z,2.11
2018-09-26T00:43:10.791Z,2.09
2018-09-26T00:44:10.779Z,2.16
2018-09-26T00:45:10.778Z,2.19
2018-09-26T00:46:10.790Z,2.11
2018-09-26T00:47:10.891Z,2.03
2018-09-26T00:48:10.775Z,2.07
2018-09-26T00:49:10.638Z,2.01
2018-09-26T00:50:10.627Z,2.14
2018-09-26T00:51:10.667Z,2.08
2018-09-26T00:52:10.699Z,2.02
2018-09-26T00:53:10.786Z,2.03
2018-09-26T00:54:10.811Z,2.02
2018-09-26T00:55:10.767Z,1.97
2018-09-26T00:56:10.845Z,2.14
2018-09-26T00:57:10.810Z,2.16
2018-09-26T00:58:10.918Z,2.03
2018-09-26T00:59:10.592Z,1.94
2018-09-26T01:00:10.832Z,1.99
2018-09-26T01:01:10.651Z,1.93
2018-09-26T01:02:10.633Z,2.05
2018-09-26T01:03:10.778Z,2.01
2018-09-26T01:04:10.632Z,2.06
2018-09-26T01:05:10.701Z,2.08
2018-09-26T01:06:11.071Z,2.17
2018-09-26T01:07:10.880Z,2.06
2018-09-26T01:08:10.640Z,2.11
2018-09-26T01:09:10.787Z,2.04
2018-09-26T01:10:10.709Z,2.07
2018-09-26T01:11:10.737Z,2.04
2018-09-26T01:12:10.856Z,2.04
2018-09-26T01:13:10.754Z,1.95
2018-09-26T01:14:10.812Z,2.01
2018-09-26T01:15:10.837Z,2.04
2018-09-26T01:16:10.594Z,2.02
2018-09-26T01:17:10.652Z,2.04
2018-09-26T01:18:10.590Z,1.95
2018-09-26T01:19:10.862Z,1.99
2018-09-26T01:20:10.871Z,1.94
2018-09-26T01:21:10.752Z,1.91
2018-09-26T01:22:10.772Z,1.92
2018-09-26T01:23:10.757Z,1.88
2018-09-26T01:24:10.921Z,1.93
2018-09-26T01:25:10.774Z,1.9
2018-09-26T01:26:10.608Z,1.91
2018-09-26T01:27:10.776Z,1.83
2018-09-26T01:28:10.610Z,1.9
2018-09-26T01:29:10.729Z,1.89
2018-09-26T01:30:10.603Z,1.88
2018-09-26T01:31:10.814Z,1.92
2018-09-26T01:32:10.718Z,1.87
2018-09-26T01:33:10.761Z,2.08
2018-09-26T01:34:10.750Z,1.91
2018-09-26T01:35:10.834Z,1.83
2018-09-26T01:36:10.783Z,1.87
2018-09-26T01:37:10.725Z,1.9
2018-09-26T01:38:10.773Z,1.83
2018-09-26T01:39:10.652Z,1.8
2018-09-26T01:40:10.676Z,1.83
2018-09-26T01:41:10.581Z,1.87
2018-09-26T01:42:10.777Z,1.86
2018-09-26T01:43:10.620Z,1.81
2018-09-26T01:44:10.832Z,1.75
2018-09-26T01:45:10.793Z,1.78
2018-09-26T01:46:10.701Z,1.79
2018-09-26T01:47:10.750Z,1.72
2018-09-26T01:48:11.029Z,1.72
2018-09-26T01:49:10.592Z,1.74
2018-09-26T01:50:10.831Z,1.84
2018-09-26T01:51:10.927Z,1.87
2018-09-26T01:52:11.023Z,1.85
2018-09-26T01:53:10.629Z,1.86
2018-09-26T01:54:10.568Z,1.9
2018-09-26T01:55:10.715Z,1.76
2018-09-26T01:56:10.860Z,1.79
2018-09-26T01:57:11.069Z,1.75
2018-09-26T01:58:10.591Z,1.73
2018-09-26T01:59:10.767Z,1.79
2018-09-26T02:00:10.502Z,1.71
2018-09-26T02:01:10.687Z,1.71
2018-09-26T02:02:10.685Z,1.83
2018-09-26T02:03:10.649Z,1.86
2018-09-26T02:04:10.519Z,1.8
2018-09-26T02:05:10.583Z,1.77
2018-09-26T02:06:10.542Z,1.74
2018-09-26T02:07:10.541Z,1.76
2018-09-26T02:08:10.692Z,1.74
2018-09-26T02:09:10.701Z,1.78
2018-09-26T02:10:10.675Z,1.74
2018-09-26T02:11:10.701Z,1.74
2018-09-26T02:12:10.686Z,1.71
2018-09-26T02:13:10.701Z,1.75
2018-09-26T02:14:10.531Z,1.77
2018-09-26T02:15:10.671Z,1.83
2018-09-26T02:16:10.535Z,1.81
2018-09-26T02:17:10.618Z,1.79
2018-09-26T02:18:10.692Z,1.84
2018-09-26T02:19:10.661Z,1.75
2018-09-26T02:20:10.685Z,1.68
2018-09-26T02:21:11.095Z,1.79
2018-09-26T02:22:10.692Z,1.78
2018-09-26T02:23:10.501Z,1.7
2018-09-26T02:24:10.898Z,1.84
2018-09-26T02:25:10.720Z,1.88
2018-09-26T02:26:10.707Z,1.73
2018-09-26T02:27:10.604Z,1.77
2018-09-26T02:28:10.740Z,1.72
2018-09-26T02:29:10.605Z,1.74
2018-09-26T02:30:10.667Z,1.75
2018-09-26T02:31:10.618Z,1.69
2018-09-26T02:32:10.844Z,1.72
2018-09-26T02:33:10.685Z,1.79
2018-09-26T02:34:10.952Z,1.67
2018-09-26T02:35:10.622Z,1.69
2018-09-26T02:36:10.672Z,1.68
2018-09-26T02:37:10.816Z,1.76
2018-09-26T02:38:10.706Z,1.63
2018-09-26T02:39:10.474Z,1.68
2018-09-26T02:40:10.472Z,1.66
2018-09-26T02:41:10.553Z,1.61
2018-09-26T02:42:10.618Z,1.72
2018-09-26T02:43:10.641Z,1.75
2018-09-26T02:44:10.795Z,1.64
2018-09-26T02:45:10.751Z,1.71
2018-09-26T02:46:10.717Z,1.82
2018-09-26T02:47:10.733Z,1.7
2018-09-26T02:48:10.774Z,1.7
2018-09-26T02:49:10.667Z,1.83
2018-09-26T02:50:11.071Z,1.74
2018-09-26T02:51:10.579Z,1.77
2018-09-26T02:52:10.729Z,1.66
2018-09-26T02:53:10.657Z,1.69
2018-09-26T02:54:10.648Z,1.74
2018-09-26T02:55:10.700Z,1.7
2018-09-26T02:56:10.509Z,1.72
2018-09-26T02:57:10.607Z,1.78
2018-09-26T02:58:10.623Z,1.76
2018-09-26T02:59:10.471Z,1.74
2018-09-26T03:00:10.728Z,1.82
2018-09-26T03:01:10.674Z,1.81
2018-09-26T03:02:10.673Z,1.72
2018-09-26T03:03:10.635Z,1.78
2018-09-26T03:04:10.673Z,1.77
2018-09-26T03:05:10.499Z,1.74
2018-09-26T03:06:10.519Z,1.73
2018-09-26T03:07:10.605Z,1.7
2018-09-26T03:08:10.677Z,1.68
2018-09-26T03:09:10.603Z,1.72
2018-09-26T03:10:10.602Z,1.63
2018-09-26T03:11:10.564Z,1.69
2018-09-26T03:12:10.568Z,1.65
2018-09-26T03:13:10.465Z,1.62
2018-09-26T03:14:10.767Z,1.69
2018-09-26T03:15:10.520Z,1.67
2018-09-26T03:16:10.631Z,1.75
2018-09-26T03:17:10.982Z,1.64
2018-09-26T03:18:11.256Z,1.64
2018-09-26T03:19:10.552Z,1.6
2018-09-26T03:20:10.528Z,1.68
2018-09-26T03:21:10.728Z,1.65
2018-09-26T03:22:10.570Z,1.62
2018-09-26T03:23:10.743Z,1.61
2018-09-26T03:24:10.600Z,1.68
2018-09-26T03:25:10.410Z,1.62
2018-09-26T03:26:10.667Z,1.61
2018-09-26T03:27:10.603Z,1.56
2018-09-26T03:28:10.571Z,1.59
2018-09-26T03:29:10.615Z,1.62
2018-09-26T03:30:10.756Z,1.61
2018-09-26T03:31:10.556Z,1.57
2018-09-26T03:32:10.591Z,1.6
2018-09-26T03:33:10.396Z,1.7
2018-09-26T03:34:10.864Z,1.66
2018-09-26T03:35:10.408Z,1.62
2018-09-26T03:36:10.608Z,1.59
2018-09-26T03:37:10.599Z,1.61
2018-09-26T03:38:10.441Z,1.54
2018-09-26T03:39:10.435Z,1.51
2018-09-26T03:40:10.570Z,1.48
2018-09-26T03:41:10.386Z,1.51
2018-09-26T03:42:10.385Z,1.45
2018-09-26T03:43:10.393Z,1.56
2018-09-26T03:44:10.544Z,1.47
2018-09-26T03:45:10.638Z,1.5
2018-09-26T03:46:10.978Z,1.43
2018-09-26T03:47:10.392Z,1.37
2018-09-26T03:48:10.718Z,1.45
2018-09-26T03:49:10.486Z,1.55
2018-09-26T03:50:10.542Z,1.44
2018-09-26T03:51:10.568Z,1.39
2018-09-26T03:52:10.534Z,1.44
2018-09-26T03:53:10.471Z,1.53
2018-09-26T03:54:10.489Z,1.62
2018-09-26T03:55:10.931Z,1.53
2018-09-26T03:56:10.536Z,1.57
2018-09-26T03:57:10.595Z,1.51
2018-09-26T03:58:10.574Z,1.62
2018-09-26T03:59:10.598Z,1.45
2018-09-26T04:00:10.700Z,1.47
2018-09-26T04:01:10.646Z,1.49
2018-09-26T04:02:10.370Z,1.48
2018-09-26T04:03:10.409Z,1.49
2018-09-26T04:04:10.540Z,1.41
2018-09-26T04:05:10.483Z,1.43
2018-09-26T04:06:10.485Z,1.46
2018-09-26T04:07:10.501Z,1.55
2018-09-26T04:08:10.441Z,1.39
2018-09-26T04:09:10.560Z,1.34
2018-09-26T04:10:10.584Z,1.4
2018-09-26T04:11:10.572Z,1.32
2018-09-26T04:12:10.609Z,1.37
2018-09-26T04:13:11.026Z,1.3
2018-09-26T04:14:10.586Z,1.28
2018-09-26T04:15:11.213Z,1.34
2018-09-26T04:16:10.561Z,1.38
2018-09-26T04:17:10.419Z,1.33
2018-09-26T04:18:10.579Z,1.3
2018-09-26T04:19:10.507Z,1.21
2018-09-26T04:20:10.665Z,1.26
2018-09-26T04:21:10.397Z,1.21
2018-09-26T04:22:10.630Z,1.36
2018-09-26T04:23:10.536Z,1.25
2018-09-26T04:24:10.470Z,1.21
2018-09-26T04:25:10.629Z,1.19
2018-09-26T04:26:10.942Z,1.23
2018-09-26T04:27:11.229Z,1.26
2018-09-26T04:28:10.442Z,1.29
2018-09-26T04:29:10.594Z,1.22
2018-09-26T04:30:10.486Z,1.23
2018-09-26T04:31:10.446Z,1.26
2018-09-26T04:32:10.555Z,1.25
2018-09-26T04:33:12.322Z,1.23
2018-09-26T04:34:10.485Z,1.31
2018-09-26T04:35:10.765Z,1.2
2018-09-26T04:36:10.790Z,1.29
2018-09-26T04:37:10.345Z,1.25
2018-09-26T04:38:10.530Z,1.31
2018-09-26T04:39:10.599Z,1.32
2018-09-26T04:40:10.454Z,1.29
2018-09-26T04:41:10.341Z,1.28
2018-09-26T04:42:10.584Z,1.27
2018-09-26T04:43:10.703Z,1.35
2018-09-26T04:44:10.332Z,1.26
2018-09-26T04:45:10.307Z,1.21
2018-09-26T04:46:10.446Z,1.26
2018-09-26T04:47:10.301Z,1.18
2018-09-26T04:48:10.437Z,1.27
2018-09-26T04:49:10.271Z,1.35
2018-09-26T04:50:10.450Z,1.38
2018-09-26T04:51:10.357Z,1.37
2018-09-26T04:52:10.276Z,1.37
2018-09-26T04:53:10.314Z,1.28
2018-09-26T04:54:10.512Z,1.32
2018-09-26T04:55:10.431Z,1.35
2018-09-26T04:56:10.709Z,1.3
2018-09-26T04:57:10.436Z,1.32
2018-09-26T04:58:10.794Z,1.28
2018-09-26T04:59:10.401Z,1.34
2018-09-26T05:00:10.423Z,1.35
2018-09-26T05:01:10.445Z,1.37
2018-09-26T05:02:10.274Z,1.32
2018-09-26T05:03:10.286Z,1.37
2018-09-26T05:04:10.263Z,1.28
2018-09-26T05:05:10.300Z,1.34
2018-09-26T05:06:10.602Z,1.41
2018-09-26T05:07:10.489Z,1.31
2018-09-26T05:08:10.807Z,1.38
2018-09-26T05:09:10.687Z,1.38
2018-09-26T05:10:10.431Z,1.37
2018-09-26T05:11:10.736Z,1.28
2018-09-26T05:12:10.463Z,1.31
2018-09-26T05:13:10.600Z,1.34
2018-09-26T05:14:10.460Z,1.34
2018-09-26T05:15:10.453Z,1.33
2018-09-26T05:16:10.517Z,1.36
2018-09-26T05:17:10.320Z,1.34
2018-09-26T05:18:10.377Z,1.28
2018-09-26T05:19:10.424Z,1.32
2018-09-26T05:20:10.359Z,1.28
2018-09-26T05:21:10.623Z,1.3
2018-09-26T05:22:10.422Z,1.3
2018-09-26T05:23:10.795Z,1.28
2018-09-26T05:24:10.419Z,1.25
2018-09-26T05:25:10.636Z,1.3
2018-09-26T05:26:10.543Z,1.21
2018-09-26T05:27:10.408Z,1.31
2018-09-26T05:28:10.237Z,1.24
2018-09-26T05:29:10.333Z,1.29
2018-09-26T05:30:10.541Z,1.25
2018-09-26T05:31:10.483Z,1.3
2018-09-26T05:32:10.582Z,1.23
2018-09-26T05:33:10.455Z,1.29
2018-09-26T05:34:10.393Z,1.2
2018-09-26T05:35:10.539Z,1.18
2018-09-26T05:36:10.382Z,1.34
2018-09-26T05:37:10.777Z,1.31
2018-09-26T05:38:10.216Z,1.29
2018-09-26T05:39:10.233Z,1.32
2018-09-26T05:40:10.838Z,1.37
2018-09-26T05:41:10.224Z,1.34
2018-09-26T05:42:10.357Z,1.31
2018-09-26T05:43:10.465Z,1.26
2018-09-26T05:44:10.479Z,1.2
2018-09-26T05:45:10.426Z,1.2
2018-09-26T05:46:10.531Z,1.27
2018-09-26T05:47:10.476Z,1.26
2018-09-26T05:48:10.472Z,1.28
2018-09-26T05:49:10.473Z,1.22
2018-09-26T05:50:10.411Z,1.21
2018-09-26T05:51:10.484Z,1.11
2018-09-26T05:52:10.209Z,1.21
2018-09-26T05:53:10.329Z,1.18
2018-09-26T05:54:10.519Z,1.21
2018-09-26T05:55:10.352Z,1.2
2018-09-26T05:56:10.638Z,1.26
2018-09-26T05:57:10.398Z,1.22
2018-09-26T05:58:10.227Z,1.28
2018-09-26T05:59:10.162Z,1.25
2018-09-26T06:00:10.487Z,1.36
2018-09-26T06:01:10.292Z,1.3
2018-09-26T06:02:10.362Z,1.24
2018-09-26T06:03:10.404Z,1.28
2018-09-26T06:04:10.269Z,1.39
2018-09-26T06:05:10.208Z,1.37
2018-09-26T06:06:10.325Z,1.31
2018-09-26T06:07:10.171Z,1.31
2018-09-26T06:08:10.380Z,1.36
2018-09-26T06:09:10.389Z,1.25
2018-09-26T06:10:10.521Z,1.26
2018-09-26T06:11:10.412Z,1.29
2018-09-26T06:12:10.333Z,1.33
2018-09-26T06:13:10.312Z,1.33
2018-09-26T06:14:10.362Z,1.27
2018-09-26T06:15:10.324Z,1.28
2018-09-26T06:16:10.232Z,1.36
2018-09-26T06:17:10.162Z,1.29
2018-09-26T06:18:10.307Z,1.24
2018-09-26T06:19:10.350Z,1.29
2018-09-26T06:20:10.356Z,1.3
2018-09-26T06:21:10.299Z,1.3
2018-09-26T06:22:10.319Z,1.25
2018-09-26T06:23:10.170Z,1.31
2018-09-26T06:24:10.317Z,1.21
2018-09-26T06:25:10.316Z,1.35
2018-09-26T06:26:10.427Z,1.25
2018-09-26T06:27:10.128Z,1.28
2018-09-26T06:28:11.682Z,1.28
2018-09-26T06:29:10.174Z,1.35
2018-09-26T06:30:10.119Z,1.41
2018-09-26T06:31:10.327Z,1.33
2018-09-26T06:32:10.165Z,1.38
2018-09-26T06:33:10.167Z,1.39
2018-09-26T06:34:10.406Z,1.38
2018-09-26T06:35:10.307Z,1.34
2018-09-26T06:36:10.192Z,1.42
2018-09-26T06:37:10.156Z,1.41
2018-09-26T06:38:10.204Z,1.43
2018-09-26T06:39:10.306Z,1.45
2018-09-26T06:40:10.271Z,1.46
2018-09-26T06:41:10.091Z,1.47
2018-09-26T06:42:10.293Z,1.36
2018-09-26T06:43:10.311Z,1.36
2018-09-26T06:44:10.144Z,1.42
2018-09-26T06:45:10.399Z,1.49
2018-09-26T06:46:10.308Z,1.36
2018-09-26T06:47:10.110Z,1.36
2018-09-26T06:48:10.434Z,1.5
2018-09-26T06:49:10.260Z,1.45
2018-09-26T06:50:10.255Z,1.51
2018-09-26T06:51:10.180Z,1.53
2018-09-26T06:52:10.351Z,1.59
2018-09-26T06:53:10.187Z,1.52
2018-09-26T06:54:10.826Z,1.56
2018-09-26T06:55:10.597Z,1.6
2018-09-26T06:56:10.748Z,1.51
2018-09-26T06:57:10.265Z,1.54
2018-09-26T06:58:10.302Z,1.53
2018-09-26T06:59:11.140Z,1.46
2018-09-26T07:00:10.383Z,1.54
2018-09-26T07:01:10.247Z,1.51
2018-09-26T07:02:10.101Z,1.47
2018-09-26T07:03:10.512Z,1.59
2018-09-26T07:04:10.181Z,1.62
2018-09-26T07:05:10.217Z,1.65
2018-09-26T07:06:10.637Z,1.53
2018-09-26T07:07:10.289Z,1.55
2018-09-26T07:08:10.124Z,1.62
2018-09-26T07:09:10.085Z,1.66
2018-09-26T07:10:10.149Z,1.62
2018-09-26T07:11:10.256Z,1.75
2018-09-26T07:12:10.596Z,1.75
2018-09-26T07:13:10.181Z,1.8
2018-09-26T07:14:10.276Z,1.73
2018-09-26T07:15:10.314Z,1.75
2018-09-26T07:16:10.237Z,1.83
2018-09-26T07:17:10.105Z,1.68
2018-09-26T07:18:10.169Z,1.69
2018-09-26T07:19:10.254Z,1.65
2018-09-26T07:20:10.066Z,1.73
2018-09-26T07:21:10.354Z,1.72
2018-09-26T07:22:10.380Z,1.69
2018-09-26T07:23:10.233Z,1.64
2018-09-26T07:24:10.294Z,1.68
2018-09-26T07:25:10.115Z,1.64
2018-09-26T07:26:10.216Z,1.73
2018-09-26T07:27:10.325Z,1.83
2018-09-26T07:28:10.318Z,1.8
2018-09-26T07:29:10.227Z,1.83
2018-09-26T07:30:10.214Z,1.73
2018-09-26T07:31:10.250Z,1.61
2018-09-26T07:32:10.407Z,1.73
2018-09-26T07:33:10.227Z,1.82
2018-09-26T07:34:10.070Z,1.63
2018-09-26T07:35:10.204Z,1.69
2018-09-26T07:36:10.218Z,1.86
2018-09-26T07:37:10.503Z,1.85
2018-09-26T07:38:10.052Z,1.93
2018-09-26T07:39:10.230Z,1.87
2018-09-26T07:40:10.076Z,1.96
2018-09-26T07:41:10.183Z,1.85
2018-09-26T07:42:10.037Z,1.78
2018-09-26T07:43:10.197Z,1.83
2018-09-26T07:44:10.242Z,1.83
2018-09-26T07:45:10.249Z,1.83
2018-09-26T07:46:10.057Z,1.85
2018-09-26T07:47:10.187Z,1.86
2018-09-26T07:48:10.216Z,1.89
2018-09-26T07:49:10.273Z,2.07
2018-09-26T07:50:10.209Z,2
2018-09-26T07:51:10.188Z,2.04
2018-09-26T07:52:10.041Z,2
2018-09-26T07:53:10.817Z,2.05
2018-09-26T07:54:10.242Z,1.95
2018-09-26T07:55:10.372Z,2.05
2018-09-26T07:56:10.387Z,2.02
2018-09-26T07:57:10.078Z,2.05
2018-09-26T07:58:10.244Z,2.16
2018-09-26T07:59:11.486Z,2.04
2018-09-26T08:00:10.121Z,2.17
2018-09-26T08:01:10.325Z,2.18
2018-09-26T08:02:10.284Z,2.13
2018-09-26T08:03:10.329Z,2.13
2018-09-26T08:04:10.337Z,2.07
2018-09-26T08:05:10.152Z,2.2
2018-09-26T08:06:10.185Z,2.11
2018-09-26T08:07:10.352Z,2.12
2018-09-26T08:08:10.380Z,2.1
2018-09-26T08:09:10.369Z,2.28
2018-09-26T08:10:10.331Z,2.45
2018-09-26T08:11:10.508Z,2.3
2018-09-26T08:12:10.227Z,2.26
2018-09-26T08:13:10.014Z,2.38
2018-09-26T08:14:10.065Z,2.41
2018-09-26T08:15:10.146Z,2.31
2018-09-26T08:16:10.222Z,2.09
2018-09-26T08:17:10.072Z,2.22
2018-09-26T08:18:10.595Z,2.32
2018-09-26T08:19:10.186Z,2.23
2018-09-26T08:20:10.240Z,2.33
2018-09-26T08:21:10.219Z,2.12
2018-09-26T08:22:10.232Z,2.24
2018-09-26T08:23:10.071Z,2.26
2018-09-26T08:24:11.634Z,2.08
2018-09-26T08:25:10.024Z,2.12
2018-09-26T08:26:10.123Z,2.01
2018-09-26T08:27:10.057Z,2.13
2018-09-26T08:28:10.410Z,2.14
2018-09-26T08:29:10.156Z,2.31
2018-09-26T08:30:11.423Z,2.34
2018-09-26T08:31:10.130Z,2.55
2018-09-26T08:32:10.038Z,2.58
2018-09-26T08:33:10.217Z,2.29
2018-09-26T08:34:10.278Z,2.24
2018-09-26T08:35:10.362Z,2.19
2018-09-26T08:36:10.230Z,2.29
2018-09-26T08:37:10.177Z,2.22
2018-09-26T08:38:10.175Z,2.21
2018-09-26T08:39:10.066Z,2.39
2018-09-26T08:40:10.188Z,2.31
2018-09-26T08:41:10.055Z,2.52
2018-09-26T08:42:10.205Z,2.37
2018-09-26T08:43:10.142Z,2.43
2018-09-26T08:44:10.176Z,2.36
2018-09-26T08:45:10.131Z,2.44
2018-09-26T08:46:10.052Z,2.53
2018-09-26T08:47:10.071Z,2.41
2018-09-26T08:48:10.228Z,2.57
2018-09-26T08:49:10.263Z,2.68
2018-09-26T08:50:09.920Z,2.58
2018-09-26T08:51:10.118Z,2.37
2018-09-26T08:52:10.110Z,2.24
2018-09-26T08:53:10.295Z,2.29
2018-09-26T08:54:10.147Z,2.35
2018-09-26T08:55:10.093Z,2.35
2018-09-26T08:56:10.096Z,2.35
2018-09-26T08:57:10.291Z,2.35
2018-09-26T08:58:10.047Z,2.26
2018-09-26T08:59:10.105Z,2.27
2018-09-26T09:00:10.165Z,2.44
2018-09-26T09:01:09.901Z,2.44
2018-09-26T09:02:09.935Z,2.48
2018-09-26T09:03:10.098Z,2.74
2018-09-26T09:04:09.943Z,2.64
2018-09-26T09:05:10.008Z,2.69
2018-09-26T09:06:10.317Z,2.58
2018-09-26T09:07:09.908Z,2.4
2018-09-26T09:08:09.942Z,2.65
2018-09-26T09:09:10.091Z,2.81
2018-09-26T09:10:10.019Z,2.87
2018-09-26T09:11:10.095Z,2.59
2018-09-26T09:12:10.299Z,2.91
2018-09-26T09:13:10.608Z,2.92
2018-09-26T09:14:10.429Z,2.97
2018-09-26T09:15:10.324Z,2.9
2018-09-26T09:16:10.759Z,2.91
2018-09-26T09:17:10.232Z,2.4
2018-09-26T09:18:10.334Z,2.71
2018-09-26T09:19:11.381Z,2.75
2018-09-26T09:20:10.533Z,2.85
2018-09-26T09:21:10.353Z,2.85
2018-09-26T09:22:10.363Z,2.91
2018-09-26T09:23:10.176Z,3.02
2018-09-26T09:24:10.290Z,3.04
2018-09-26T09:25:10.289Z,3.02
2018-09-26T09:26:10.564Z,2.94
2018-09-26T09:27:10.642Z,2.96
2018-09-26T09:28:10.206Z,2.91
2018-09-26T09:29:10.329Z,3.05
2018-09-26T09:30:10.315Z,2.57
2018-09-26T09:31:10.019Z,2.97
2018-09-26T09:32:10.705Z,3.05
2018-09-26T09:33:10.361Z,3.09
2018-09-26T09:34:10.557Z,3
2018-09-26T09:35:09.904Z,2.88
2018-09-26T09:36:10.244Z,2.82
2018-09-26T09:37:10.153Z,2.65
2018-09-26T09:38:10.266Z,2.69
2018-09-26T09:39:10.069Z,2.62
2018-09-26T09:40:10.201Z,2.85
2018-09-26T09:41:10.311Z,3.23
2018-09-26T09:42:11.242Z,3.33
2018-09-26T09:43:10.296Z,2.89
2018-09-26T09:44:10.965Z,2.84
2018-09-26T09:45:10.237Z,2.97
2018-09-26T09:46:10.016Z,3.09
2018-09-26T09:47:10.017Z,3.3
2018-09-26T09:48:10.233Z,3.09
2018-09-26T09:49:10.024Z,2.94
2018-09-26T09:50:10.325Z,2.84
2018-09-26T09:51:10.265Z,3.15
2018-09-26T09:52:10.123Z,3.25
2018-09-26T09:53:09.846Z,3.01
2018-09-26T09:54:10.170Z,2.93
2018-09-26T09:55:10.164Z,3.05
2018-09-26T09:56:10.379Z,3.04
2018-09-26T09:57:10.301Z,2.98
2018-09-26T09:58:10.327Z,3.25
2018-09-26T09:59:10.212Z,3.02
2018-09-26T10:00:10.951Z,3.32
2018-09-26T10:01:10.017Z,3.28
2018-09-26T10:02:10.314Z,3.29
2018-09-26T10:03:10.867Z,3.41
2018-09-26T10:04:10.170Z,3.26
2018-09-26T10:05:10.012Z,2.95
2018-09-26T10:06:10.043Z,3.14
2018-09-26T10:07:10.094Z,2.93
2018-09-26T10:08:10.514Z,3.18
2018-09-26T10:09:10.292Z,3.24
2018-09-26T10:10:10.316Z,3.34
2018-09-26T10:11:09.985Z,3.33
2018-09-26T10:12:12.349Z,3.14
2018-09-26T10:13:10.086Z,3.07
2018-09-26T10:14:10.659Z,2.85
2018-09-26T10:15:10.218Z,2.92
2018-09-26T10:16:10.244Z,2.7
2018-09-26T10:17:09.818Z,2.37
2018-09-26T10:18:10.269Z,2.59
2018-09-26T10:19:09.866Z,2.83
2018-09-26T10:20:10.120Z,3.29
2018-09-26T10:21:10.007Z,3.17
2018-09-26T10:22:09.981Z,2.95
2018-09-26T10:23:10.207Z,2.85
2018-09-26T10:24:10.273Z,3.01
2018-09-26T10:25:10.640Z,2.89
2018-09-26T10:26:10.425Z,3.05
2018-09-26T10:27:10.267Z,3.39
2018-09-26T10:28:10.004Z,3.28
2018-09-26T10:29:09.942Z,3.06
2018-09-26T10:30:10.013Z,2.9
2018-09-26T10:31:10.014Z,3.05
2018-09-26T10:32:10.088Z,3.42
2018-09-26T10:33:10.265Z,3.17
2018-09-26T10:34:10.048Z,3.38
2018-09-26T10:35:10.085Z,3.34
2018-09-26T10:36:09.854Z,3.23
2018-09-26T10:37:10.200Z,3.24
2018-09-26T10:38:10.361Z,3.36
2018-09-26T10:39:10.178Z,2.97
2018-09-26T10:40:10.664Z,3
2018-09-26T10:41:09.817Z,3.17
2018-09-26T10:42:10.062Z,3.31
2018-09-26T10:43:10.090Z,3.18
2018-09-26T10:44:09.944Z,2.86
2018-09-26T10:45:10.317Z,2.93
2018-09-26T10:46:10.006Z,2.98
2018-09-26T10:47:09.925Z,3.02
2018-09-26T10:48:10.234Z,3.24
2018-09-26T10:49:10.114Z,3.11
2018-09-26T10:50:10.303Z,3.42
2018-09-26T10:51:10.479Z,3.24
2018-09-26T10:52:10.066Z,2.9
2018-09-26T10:53:09.770Z,2.88
2018-09-26T10:54:10.019Z,2.88
2018-09-26T10:55:09.840Z,3.19
2018-09-26T10:56:10.309Z,2.51
2018-09-26T10:57:10.123Z,2.59
2018-09-26T10:58:10.019Z,2.79
2018-09-26T10:59:10.063Z,2.75
2018-09-26T11:00:10.214Z,2.72
2018-09-26T11:01:09.942Z,2.89
2018-09-26T11:02:11.093Z,2.92
2018-09-26T11:03:10.254Z,2.58
2018-09-26T11:04:10.279Z,2.9
2018-09-26T11:05:09.907Z,2.91
2018-09-26T11:06:09.871Z,3.2
2018-09-26T11:07:09.739Z,3.29
2018-09-26T11:08:10.427Z,3.17
2018-09-26T11:09:10.339Z,3.34
2018-09-26T11:10:10.171Z,3.32
2018-09-26T11:11:09.984Z,2.98
2018-09-26T11:12:10.198Z,2.75
2018-09-26T11:13:10.040Z,3.17
2018-09-26T11:14:10.157Z,3.11
2018-09-26T11:15:10.227Z,2.77
2018-09-26T11:16:10.266Z,3.36
2018-09-26T11:17:10.027Z,3.58
2018-09-26T11:18:09.838Z,3.64
2018-09-26T11:19:09.944Z,3.24
2018-09-26T11:20:10.036Z,3.13
2018-09-26T11:21:10.172Z,2.92
2018-09-26T11:22:10.404Z,2.75
2018-09-26T11:23:09.745Z,2.58
2018-09-26T11:24:09.872Z,2.9
2018-09-26T11:25:09.974Z,3.28
2018-09-26T11:26:10.359Z,3.15
2018-09-26T11:27:10.408Z,3.19
2018-09-26T11:28:10.326Z,3.25
2018-09-26T11:29:09.890Z,3.24
2018-09-26T11:30:10.214Z,2.89
2018-09-26T11:31:09.927Z,3.15
2018-09-26T11:32:10.227Z,3.32
2018-09-26T11:33:10.217Z,3.23
2018-09-26T11:34:10.051Z,3.25
2018-09-26T11:35:09.779Z,3.02
2018-09-26T11:36:09.975Z,2.97
2018-09-26T11:37:10.196Z,3.19
2018-09-26T11:38:10.226Z,2.98
2018-09-26T11:39:10.045Z,2.97
2018-09-26T11:40:10.113Z,3.04
2018-09-26T11:41:09.794Z,3.04
2018-09-26T11:42:09.713Z,3.03
2018-09-26T11:43:10.217Z,3.37
2018-09-26T11:44:10.158Z,3.35
2018-09-26T11:45:09.984Z,3.22
2018-09-26T11:46:10.023Z,3.27
2018-09-26T11:47:09.999Z,2.86
2018-09-26T11:48:09.715Z,2.83
2018-09-26T11:49:09.868Z,2.51
2018-09-26T11:50:10.338Z,2.63
2018-09-26T11:51:09.865Z,2.59
2018-09-26T11:52:10.136Z,2.92
2018-09-26T11:53:09.837Z,3.54
2018-09-26T11:54:10.316Z,3.39
2018-09-26T11:55:09.896Z,3.01
2018-09-26T11:56:10.119Z,3.57
2018-09-26T11:57:09.999Z,3.51
2018-09-26T11:58:10.018Z,3.71
2018-09-26T11:59:09.948Z,3.84
2018-09-26T12:00:09.816Z,3.82
2018-09-26T12:01:09.825Z,3.33
2018-09-26T12:02:10.210Z,2.8
2018-09-26T12:03:10.162Z,2.63
2018-09-26T12:04:10.069Z,2.8
2018-09-26T12:05:10.171Z,2.97
2018-09-26T12:06:10.024Z,2.79
2018-09-26T12:08:10.203Z,3.1
2018-09-26T12:09:09.857Z,3.34
2018-09-26T12:10:10.393Z,3.24
2018-09-26T12:11:09.946Z,3.09
2018-09-26T12:12:09.998Z,3.45
2018-09-26T12:13:10.177Z,3.37
2018-09-26T12:14:09.925Z,3.27
2018-09-26T12:15:10.029Z,3.56
2018-09-26T12:16:09.884Z,3.49
2018-09-26T12:17:09.714Z,3.21
2018-09-26T12:18:09.928Z,3.01
2018-09-26T12:19:10.209Z,3.38
2018-09-26T12:20:09.956Z,3.35
2018-09-26T12:21:09.737Z,3.71
2018-09-26T12:22:10.432Z,3.31
2018-09-26T12:23:09.759Z,3.43
2018-09-26T12:24:09.974Z,3.48
2018-09-26T12:25:10.057Z,3.54
2018-09-26T12:26:10.115Z,3.2
2018-09-26T12:27:10.100Z,3.43
2018-09-26T12:28:10.873Z,3.43
2018-09-26T12:29:09.800Z,3.62
2018-09-26T12:30:10.148Z,3.52
2018-09-26T12:31:09.897Z,3.59
2018-09-26T12:32:09.947Z,3.54
2018-09-26T12:33:09.982Z,3.38
2018-09-26T12:34:10.539Z,3.35
2018-09-26T12:35:09.798Z,3.69
2018-09-26T12:36:09.914Z,3.41
2018-09-26T12:37:09.607Z,3.17
2018-09-26T12:38:09.781Z,3.22
2018-09-26T12:39:09.658Z,3.45
2018-09-26T12:40:10.365Z,3.18
2018-09-26T12:41:09.876Z,3.28
2018-09-26T12:42:10.249Z,3.2
2018-09-26T12:43:12.870Z,3.36
2018-09-26T12:44:09.790Z,3.74
2018-09-26T12:45:09.936Z,3.31
2018-09-26T12:46:10.036Z,3.26
2018-09-26T12:47:09.996Z,3.31
2018-09-26T12:48:10.437Z,3.3
2018-09-26T12:49:09.635Z,3.41
2018-09-26T12:50:09.636Z,3.47
2018-09-26T12:51:09.790Z,3.2
2018-09-26T12:52:10.557Z,3.35
2018-09-26T12:53:09.805Z,3.36
2018-09-26T12:54:10.991Z,3.16
2018-09-26T12:55:10.089Z,3.25
2018-09-26T12:56:10.147Z,3.03
2018-09-26T12:57:09.998Z,3.05
2018-09-26T12:58:09.835Z,3.51
2018-09-26T12:59:09.778Z,2.94
2018-09-26T13:00:10.112Z,2.93
2018-09-26T13:01:09.776Z,3.21
2018-09-26T13:02:10.142Z,3.54
2018-09-26T13:03:09.984Z,3.43
2018-09-26T13:04:10.327Z,3.61
2018-09-26T13:05:09.874Z,3.51
2018-09-26T13:06:09.976Z,3.53
2018-09-26T13:07:09.713Z,3.57
2018-09-26T13:08:10.427Z,3.52
2018-09-26T13:09:09.997Z,3.32
2018-09-26T13:10:10.165Z,3.07
2018-09-26T13:11:09.908Z,3.16
2018-09-26T13:12:10.112Z,3.22
2018-09-26T13:13:10.057Z,3.02
2018-09-26T13:14:10.175Z,3.49
2018-09-26T13:15:09.774Z,3.79
2018-09-26T13:16:10.135Z,3.77
2018-09-26T13:17:09.927Z,3.82
2018-09-26T13:18:10.129Z,3.44
2018-09-26T13:19:10.148Z,3.53
2018-09-26T13:20:09.745Z,2.74
2018-09-26T13:21:10.134Z,2.86